OOCL Genoa — VROK9 — position and weather

sailwx.info

Track history (hours):
 
Tides and Currents Weather Stations Pressure Air Temp Water Temp Dewpoint Dewpoint Depression Visibility Wind Speed Wind Dir Waves Ship Positions

OOCL Genoa

Last reported at 2018-Feb-25 01:53 UTC. Time now 2018-Feb-25 17:46 UTC.
Position N 34°57' E 140°23'.

Length 334 m; draft 11.6 m.

Type: Cargo ship. MMSI: 477454900.

Date/timePositionNaut miles runAvg speedWind from/ knotsBaromVisibWave heightAir tempDewpointWater temp
2018-Feb-25 01:53N 34°57' E 140°23'821.2
2018-Feb-25 01:30N 34°53' E 140°14'1121.2
2018-Feb-25 00:59N 34°48' E 140°02'1220.9
2018-Feb-25 00:25N 34°44' E 139°49'1121.4
2018-Feb-24 23:55N 34°41' E 139°36'2321.1
2018-Feb-24 22:49N 34°32' E 139°10'721.5
2018-Feb-24 22:29N 34°28' E 139°03'1121.5
2018-Feb-24 21:59N 34°24' E 138°51'1421.9
2018-Feb-24 21:22N 34°17' E 138°36'821.4
2018-Feb-24 21:00N 34°13' E 138°28'1121.6
2018-Feb-24 20:29N 34°08' E 138°16'1021.1
2018-Feb-24 20:00N 34°03' E 138°06'100121.8
2018-Feb-22 22:09N 25°32' E 121°34'420.4
2018-Feb-22 21:57N 25°29' E 121°30'1020.5
2018-Feb-22 21:29N 25°24' E 121°21'1020.5
2018-Feb-22 21:00N 25°19' E 121°12'1019.9
2018-Feb-22 20:30N 25°13' E 121°03'919.3
2018-Feb-22 20:00N 25°06' E 120°56'1019.1
2018-Feb-22 19:30N 24°58' E 120°50'9619.2
2018-Feb-22 14:29N 23°35' E 119°56'1020.4
2018-Feb-22 14:01N 23°26' E 119°56'1020.3
2018-Feb-22 13:30N 23°16' E 119°56'1019.9
2018-Feb-22 13:01N 23°06' E 119°56'1019.8
2018-Feb-22 12:30N 22°56' E 119°58'1019.7
2018-Feb-22 12:01N 22°47' E 120°03'1020.1
2018-Feb-22 11:31N 22°38' E 120°08'816.0
2018-Feb-22 11:00N 22°33' E 120°14'5 9.3
2018-Feb-22 10:30N 22°33' E 120°19'1 2.4
2018-Feb-22 09:59N 22°34' E 120°19'0 0.0
2018-Feb-22 09:29N 22°34' E 120°19'0 0.0
2018-Feb-22 08:59N 22°34' E 120°19'0 0.0
2018-Feb-22 08:29N 22°34' E 120°19'0 0.0
2018-Feb-22 07:59N 22°34' E 120°19'0 0.0
2018-Feb-22 07:26N 22°34' E 120°19'0 0.0
2018-Feb-22 06:59N 22°34' E 120°19'0 0.0
2018-Feb-22 06:29N 22°34' E 120°19'0 0.0
2018-Feb-22 06:00N 22°34' E 120°19'0 0.0
2018-Feb-22 05:29N 22°34' E 120°19'0 0.0
2018-Feb-22 04:47N 22°34' E 120°19'0 0.0
2018-Feb-22 04:26N 22°34' E 120°19'0 0.0
2018-Feb-22 03:53N 22°34' E 120°19'0 0.0
2018-Feb-22 03:29N 22°34' E 120°19'0 0.0
2018-Feb-22 02:59N 22°34' E 120°19'0 0.0
2018-Feb-22 02:29N 22°34' E 120°19'0 0.0
2018-Feb-22 01:56N 22°34' E 120°19'0 0.0
2018-Feb-22 01:29N 22°34' E 120°19'0 0.0
2018-Feb-22 01:00N 22°34' E 120°19'1 2.1
2018-Feb-22 00:30N 22°33' E 120°19'3 5.6
2018-Feb-22 00:00N 22°32' E 120°16'1 1.6
2018-Feb-21 23:30N 22°32' E 120°16'3 6.2
2018-Feb-21 23:00N 22°31' E 120°12'510.7
2018-Feb-21 22:31N 22°31' E 120°07'713.7
2018-Feb-21 22:00N 22°30' E 119°59'713.7
2018-Feb-21 21:30N 22°29' E 119°52'319 6.3
2018-Feb-19 18:31N 22°19' E 114°07'  
Track history (hours):
 
Tides and Currents Weather Stations Pressure Air Temp Water Temp Dewpoint Dewpoint Depression Visibility Wind Speed Wind Dir Waves Ship Positions

OOCL Genoa

Last reported at 2018-Feb-25 01:53 UTC. Time now 2018-Feb-25 17:46 UTC.
Position N 34°57' E 140°23'.

Length 334 m; draft 11.6 m.

Type: Cargo ship. MMSI: 477454900.

Date/timePositionNaut miles runAvg speedWind from/ knotsBaromVisibWave heightAir tempDewpointWater temp
2018-Feb-25 01:53N 34°57' E 140°23'821.2
2018-Feb-25 01:30N 34°53' E 140°14'1121.2
2018-Feb-25 00:59N 34°48' E 140°02'1220.9
2018-Feb-25 00:25N 34°44' E 139°49'1121.4
2018-Feb-24 23:55N 34°41' E 139°36'2321.1
2018-Feb-24 22:49N 34°32' E 139°10'721.5
2018-Feb-24 22:29N 34°28' E 139°03'1121.5
2018-Feb-24 21:59N 34°24' E 138°51'1421.9
2018-Feb-24 21:22N 34°17' E 138°36'821.4
2018-Feb-24 21:00N 34°13' E 138°28'1121.6
2018-Feb-24 20:29N 34°08' E 138°16'1021.1
2018-Feb-24 20:00N 34°03' E 138°06'100121.8
2018-Feb-22 22:09N 25°32' E 121°34'420.4
2018-Feb-22 21:57N 25°29' E 121°30'1020.5
2018-Feb-22 21:29N 25°24' E 121°21'1020.5
2018-Feb-22 21:00N 25°19' E 121°12'1019.9
2018-Feb-22 20:30N 25°13' E 121°03'919.3
2018-Feb-22 20:00N 25°06' E 120°56'1019.1
2018-Feb-22 19:30N 24°58' E 120°50'9619.2
2018-Feb-22 14:29N 23°35' E 119°56'1020.4
2018-Feb-22 14:01N 23°26' E 119°56'1020.3
2018-Feb-22 13:30N 23°16' E 119°56'1019.9
2018-Feb-22 13:01N 23°06' E 119°56'1019.8
2018-Feb-22 12:30N 22°56' E 119°58'1019.7
2018-Feb-22 12:01N 22°47' E 120°03'1020.1
2018-Feb-22 11:31N 22°38' E 120°08'816.0
2018-Feb-22 11:00N 22°33' E 120°14'5 9.3
2018-Feb-22 10:30N 22°33' E 120°19'1 2.4
2018-Feb-22 09:59N 22°34' E 120°19'0 0.0
2018-Feb-22 09:29N 22°34' E 120°19'0 0.0
2018-Feb-22 08:59N 22°34' E 120°19'0 0.0
2018-Feb-22 08:29N 22°34' E 120°19'0 0.0
2018-Feb-22 07:59N 22°34' E 120°19'0 0.0
2018-Feb-22 07:26N 22°34' E 120°19'0 0.0
2018-Feb-22 06:59N 22°34' E 120°19'0 0.0
2018-Feb-22 06:29N 22°34' E 120°19'0 0.0
2018-Feb-22 06:00N 22°34' E 120°19'0 0.0
2018-Feb-22 05:29N 22°34' E 120°19'0 0.0
2018-Feb-22 04:47N 22°34' E 120°19'0 0.0
2018-Feb-22 04:26N 22°34' E 120°19'0 0.0
2018-Feb-22 03:53N 22°34' E 120°19'0 0.0
2018-Feb-22 03:29N 22°34' E 120°19'0 0.0
2018-Feb-22 02:59N 22°34' E 120°19'0 0.0
2018-Feb-22 02:29N 22°34' E 120°19'0 0.0
2018-Feb-22 01:56N 22°34' E 120°19'0 0.0
2018-Feb-22 01:29N 22°34' E 120°19'0 0.0
2018-Feb-22 01:00N 22°34' E 120°19'1 2.1
2018-Feb-22 00:30N 22°33' E 120°19'3 5.6
2018-Feb-22 00:00N 22°32' E 120°16'1 1.6
2018-Feb-21 23:30N 22°32' E 120°16'3 6.2
2018-Feb-21 23:00N 22°31' E 120°12'510.7
2018-Feb-21 22:31N 22°31' E 120°07'713.7
2018-Feb-21 22:00N 22°30' E 119°59'713.7
2018-Feb-21 21:30N 22°29' E 119°52'319 6.3
2018-Feb-19 18:31N 22°19' E 114°07'  

Dump ship's entire track history